createdAt,value
2018-07-05T00:00:30.125Z,0.00
2018-07-05T00:01:30.036Z,0.00
2018-07-05T00:02:29.946Z,0.00
2018-07-05T00:03:29.856Z,0.00
2018-07-05T00:04:29.749Z,0.00
2018-07-05T00:05:29.657Z,0.00
2018-07-05T00:06:29.571Z,0.00
2018-07-05T00:07:29.482Z,0.00
2018-07-05T00:08:29.378Z,0.00
2018-07-05T00:09:29.288Z,0.00
2018-07-05T00:10:29.193Z,0.00
2018-07-05T00:11:29.090Z,0.00
2018-07-05T00:12:29.002Z,0.00
2018-07-05T00:13:28.910Z,0.00
2018-07-05T00:14:28.804Z,0.00
2018-07-05T00:15:28.713Z,0.00
2018-07-05T00:16:28.623Z,0.00
2018-07-05T00:17:28.534Z,0.00
2018-07-05T00:18:28.433Z,0.00
2018-07-05T00:19:28.342Z,0.00
2018-07-05T00:20:28.252Z,0.00
2018-07-05T00:21:28.160Z,0.00
2018-07-05T00:22:28.053Z,0.00
2018-07-05T00:23:27.968Z,0.00
2018-07-05T00:24:27.870Z,0.00
2018-07-05T00:25:27.766Z,0.00
2018-07-05T00:26:27.930Z,0.00
2018-07-05T00:27:27.589Z,0.00
2018-07-05T00:28:27.484Z,0.00
2018-07-05T00:29:27.393Z,0.00
2018-07-05T00:30:27.306Z,0.00
2018-07-05T00:31:27.215Z,0.00
2018-07-05T00:32:27.110Z,0.00
2018-07-05T00:33:27.018Z,0.00
2018-07-05T00:34:26.925Z,0.00
2018-07-05T00:35:26.821Z,0.00
2018-07-05T00:36:26.734Z,0.00
2018-07-05T00:37:26.644Z,0.00
2018-07-05T00:38:26.536Z,0.00
2018-07-05T00:39:26.446Z,0.00
2018-07-05T00:40:26.356Z,0.00
2018-07-05T00:41:26.265Z,0.00
2018-07-05T00:42:26.169Z,0.00
2018-07-05T00:43:26.076Z,0.00
2018-07-05T00:44:25.978Z,0.00
2018-07-05T00:45:25.874Z,0.00
2018-07-05T00:46:25.789Z,0.00
2018-07-05T00:47:25.696Z,0.00
2018-07-05T00:48:25.600Z,0.00
2018-07-05T00:49:25.506Z,0.00
2018-07-05T00:50:25.409Z,0.00
2018-07-05T00:51:25.308Z,0.00
2018-07-05T00:52:25.221Z,0.00
2018-07-05T00:53:25.142Z,0.00
2018-07-05T00:54:25.060Z,0.00
2018-07-05T00:55:24.932Z,0.00
2018-07-05T00:56:24.849Z,0.00
2018-07-05T00:57:24.748Z,0.00
2018-07-05T00:58:24.649Z,0.00
2018-07-05T00:59:24.559Z,0.00
2018-07-05T01:00:24.465Z,0.00
2018-07-05T01:01:24.362Z,0.00
2018-07-05T01:02:24.275Z,0.00
2018-07-05T01:03:24.185Z,0.00
2018-07-05T01:04:24.090Z,0.00
2018-07-05T01:05:23.987Z,0.00
2018-07-05T01:06:24.192Z,0.00
2018-07-05T01:07:23.801Z,0.00
2018-07-05T01:08:23.702Z,0.00
2018-07-05T01:09:23.613Z,0.00
2018-07-05T01:10:23.516Z,0.00
2018-07-05T01:11:23.413Z,0.00
2018-07-05T01:12:23.325Z,0.00
2018-07-05T01:13:23.234Z,0.00
2018-07-05T01:14:23.134Z,0.00
2018-07-05T01:15:23.044Z,0.00
2018-07-05T01:16:22.947Z,0.00
2018-07-05T01:17:22.843Z,0.00
2018-07-05T01:18:22.758Z,0.00
2018-07-05T01:19:22.666Z,0.00
2018-07-05T01:20:22.565Z,0.00
2018-07-05T01:21:22.475Z,0.00
2018-07-05T01:22:22.379Z,0.00
2018-07-05T01:23:22.276Z,0.00
2018-07-05T01:24:22.187Z,0.00
2018-07-05T01:25:22.095Z,0.00
2018-07-05T01:26:21.989Z,0.00
2018-07-05T01:27:21.899Z,0.00
2018-07-05T01:28:21.808Z,0.00
2018-07-05T01:29:21.707Z,0.00
2018-07-05T01:30:21.625Z,0.00
2018-07-05T01:31:21.528Z,0.00
2018-07-05T01:32:21.420Z,0.00
2018-07-05T01:33:21.328Z,0.00
2018-07-05T01:34:21.244Z,0.00
2018-07-05T01:35:21.139Z,0.00
2018-07-05T01:36:21.056Z,0.00
2018-07-05T01:37:20.957Z,0.00
2018-07-05T01:38:20.854Z,0.00
2018-07-05T01:39:20.760Z,0.00
2018-07-05T01:40:20.673Z,0.00
2018-07-05T01:41:20.836Z,0.00
2018-07-05T01:42:20.480Z,0.00
2018-07-05T01:43:20.384Z,0.00
2018-07-05T01:44:20.281Z,0.00
2018-07-05T01:45:20.190Z,0.00
2018-07-05T01:46:20.104Z,0.00
2018-07-05T01:47:19.999Z,0.00
2018-07-05T01:48:19.905Z,0.00
2018-07-05T01:49:19.814Z,0.00
2018-07-05T01:50:19.716Z,0.00
2018-07-05T01:51:19.627Z,0.00
2018-07-05T01:52:19.533Z,0.00
2018-07-05T01:53:19.429Z,0.00
2018-07-05T01:54:19.338Z,0.00
2018-07-05T01:55:19.243Z,0.00
2018-07-05T01:56:19.145Z,0.00
2018-07-05T01:57:19.053Z,0.00
2018-07-05T01:58:18.960Z,0.00
2018-07-05T01:59:18.856Z,0.00
2018-07-05T02:00:18.769Z,0.00
2018-07-05T02:01:18.675Z,0.00
2018-07-05T02:02:18.578Z,0.00
2018-07-05T02:03:18.486Z,0.00
2018-07-05T02:04:18.389Z,4.00
2018-07-05T02:05:18.285Z,4.00
2018-07-05T02:06:18.198Z,4.00
2018-07-05T02:07:18.120Z,0.00
2018-07-05T02:08:18.006Z,0.00
2018-07-05T02:09:17.916Z,4.00
2018-07-05T02:10:17.820Z,4.00
2018-07-05T02:11:17.716Z,0.00
2018-07-05T02:12:17.630Z,4.00
2018-07-05T02:13:17.539Z,4.00
2018-07-05T02:14:17.432Z,4.00
2018-07-05T02:15:17.341Z,8.00
2018-07-05T02:16:17.261Z,4.00
2018-07-05T02:17:17.144Z,8.00
2018-07-05T02:18:17.059Z,8.00
2018-07-05T02:19:16.956Z,8.00
2018-07-05T02:20:16.864Z,8.00
2018-07-05T02:21:16.772Z,12.00
2018-07-05T02:22:16.677Z,16.00
2018-07-05T02:23:16.581Z,12.00
2018-07-05T02:24:16.490Z,16.00
2018-07-05T02:25:16.386Z,20.00
2018-07-05T02:26:16.290Z,24.00
2018-07-05T02:27:16.201Z,24.00
2018-07-05T02:28:16.103Z,28.00
2018-07-05T02:29:16.012Z,32.00
2018-07-05T02:30:15.917Z,32.00
2018-07-05T02:31:15.814Z,40.00
2018-07-05T02:32:15.721Z,40.00
2018-07-05T02:33:15.631Z,44.00
2018-07-05T02:34:15.532Z,52.00
2018-07-05T02:35:15.440Z,60.00
2018-07-05T02:36:15.336Z,60.00
2018-07-05T02:37:15.247Z,68.00
2018-07-05T02:38:15.157Z,76.00
2018-07-05T02:39:15.054Z,84.00
2018-07-05T02:40:14.961Z,92.00
2018-07-05T02:41:15.120Z,100.00
2018-07-05T02:42:14.762Z,108.00
2018-07-05T02:43:14.673Z,120.00
2018-07-05T02:44:14.585Z,128.00
2018-07-05T02:45:14.482Z,144.00
2018-07-05T02:46:14.387Z,152.00
2018-07-05T02:47:14.305Z,164.00
2018-07-05T02:48:14.195Z,176.00
2018-07-05T02:49:14.104Z,188.00
2018-07-05T02:50:14.005Z,204.00
2018-07-05T02:51:13.920Z,220.00
2018-07-05T02:52:13.818Z,232.00
2018-07-05T02:53:13.715Z,252.00
2018-07-05T02:54:13.627Z,268.00
2018-07-05T02:55:13.536Z,288.00
2018-07-05T02:56:13.437Z,308.00
2018-07-05T02:57:13.348Z,328.00
2018-07-05T02:58:13.250Z,348.00
2018-07-05T02:59:13.147Z,372.00
2018-07-05T03:00:13.059Z,396.00
2018-07-05T03:01:13.208Z,420.00
2018-07-05T03:02:12.862Z,444.00
2018-07-05T03:03:12.771Z,472.00
2018-07-05T03:04:12.665Z,496.00
2018-07-05T03:05:12.576Z,520.00
2018-07-05T03:06:12.488Z,548.00
2018-07-05T03:07:12.384Z,576.00
2018-07-05T03:08:12.300Z,608.00
2018-07-05T03:09:12.201Z,644.00
2018-07-05T03:10:12.101Z,680.00
2018-07-05T03:11:12.012Z,716.00
2018-07-05T03:12:11.922Z,760.00
2018-07-05T03:13:11.814Z,804.00
2018-07-05T03:14:11.720Z,852.00
2018-07-05T03:15:11.631Z,900.00
2018-07-05T03:16:11.529Z,964.00
2018-07-05T03:17:11.440Z,1032.00
2018-07-05T03:18:11.334Z,1100.00
2018-07-05T03:19:11.241Z,1164.00
2018-07-05T03:20:11.152Z,1240.00
2018-07-05T03:21:11.049Z,1332.00
2018-07-05T03:22:10.961Z,1432.00
2018-07-05T03:23:10.872Z,1528.00
2018-07-05T03:24:10.763Z,1632.00
2018-07-05T03:25:10.671Z,1748.00
2018-07-05T03:26:10.584Z,1856.00
2018-07-05T03:27:10.481Z,1952.00
2018-07-05T03:28:10.393Z,2032.00
2018-07-05T03:29:10.302Z,2100.00
2018-07-05T03:32:53.397Z,2348.00
2018-07-05T03:33:53.295Z,2432.00
2018-07-05T03:34:53.204Z,2520.00
2018-07-05T03:35:53.112Z,2600.00
2018-07-05T03:36:53.011Z,2680.00
2018-07-05T03:37:52.919Z,2736.00
2018-07-05T03:38:52.829Z,2764.00
2018-07-05T03:40:38.692Z,2796.00
2018-07-05T03:40:52.642Z,2860.00
2018-07-05T03:42:25.758Z,2916.00
2018-07-05T03:42:52.456Z,2972.00
2018-07-05T03:43:52.347Z,3012.00
2018-07-05T03:44:52.255Z,3036.00
2018-07-05T03:45:52.171Z,3040.00
2018-07-05T03:46:52.077Z,3040.00
2018-07-05T03:47:51.970Z,3048.00
2018-07-05T03:48:51.881Z,3080.00
2018-07-05T03:49:51.791Z,3140.00
2018-07-05T03:50:51.689Z,3216.00
2018-07-05T03:51:51.601Z,3308.00
2018-07-05T03:52:51.510Z,3408.00
2018-07-05T03:53:51.420Z,3480.00
2018-07-05T03:54:51.310Z,3524.00
2018-07-05T03:55:51.223Z,3524.00
2018-07-05T03:56:51.133Z,3496.00
2018-07-05T03:57:51.343Z,3472.00
2018-07-05T03:58:50.942Z,3468.00
2018-07-05T03:59:50.845Z,3504.00
2018-07-05T04:00:50.756Z,3544.00
2018-07-05T04:01:50.668Z,3576.00
2018-07-05T04:02:50.590Z,3604.00
2018-07-05T04:03:50.471Z,3704.00
2018-07-05T04:04:50.379Z,3684.00
2018-07-05T04:05:50.285Z,3668.00
2018-07-05T04:06:50.196Z,3600.00
2018-07-05T04:07:50.107Z,3640.00
2018-07-05T04:08:50.006Z,3632.00
2018-07-05T04:10:09.122Z,3564.00
2018-07-05T04:10:49.822Z,3488.00
2018-07-05T04:11:49.730Z,3388.00
2018-07-05T04:12:49.639Z,3344.00
2018-07-05T04:13:49.540Z,3332.00
2018-07-05T04:14:49.446Z,3352.00
2018-07-05T04:15:49.404Z,3448.00
2018-07-05T04:16:49.264Z,3468.00
2018-07-05T04:17:49.173Z,3472.00
2018-07-05T04:18:49.083Z,3540.00
2018-07-05T04:20:01.736Z,3552.00
2018-07-05T04:20:48.898Z,3552.00
2018-07-05T04:23:32.346Z,3564.00
2018-07-05T04:24:32.002Z,3628.00
2018-07-05T04:25:31.910Z,3724.00
2018-07-05T04:26:31.817Z,3828.00
2018-07-05T04:27:31.726Z,3916.00
2018-07-05T04:28:31.642Z,3960.00
2018-07-05T04:29:31.537Z,3944.00
2018-07-05T04:30:31.443Z,3944.00
2018-07-05T04:31:31.352Z,3980.00
2018-07-05T04:32:31.266Z,4056.00
2018-07-05T04:33:31.174Z,4148.00
2018-07-05T04:34:31.084Z,4268.00
2018-07-05T04:35:30.991Z,4412.00
2018-07-05T04:36:30.897Z,4584.00
2018-07-05T04:37:30.805Z,4776.00
2018-07-05T04:38:30.706Z,4960.00
2018-07-05T04:39:30.619Z,5060.00
2018-07-05T04:40:30.521Z,5028.00
2018-07-05T04:41:30.431Z,4932.00
2018-07-05T04:42:30.367Z,4788.00
2018-07-05T04:43:30.252Z,4632.00
2018-07-05T04:44:30.161Z,4544.00
2018-07-05T04:45:30.070Z,4504.00
2018-07-05T04:46:29.977Z,4540.00
2018-07-05T04:47:29.886Z,4596.00
2018-07-05T04:48:29.787Z,4660.00
2018-07-05T04:49:29.694Z,4740.00
2018-07-05T04:50:29.607Z,4804.00
2018-07-05T04:51:29.516Z,4864.00
2018-07-05T04:52:29.421Z,4948.00
2018-07-05T04:53:29.330Z,5072.00
2018-07-05T04:54:29.243Z,5220.00
2018-07-05T04:55:29.160Z,5424.00
2018-07-05T04:56:29.058Z,5632.00
2018-07-05T04:57:28.967Z,5816.00
2018-07-05T04:58:29.123Z,5964.00
2018-07-05T04:59:28.782Z,5932.00
2018-07-05T05:00:28.687Z,5840.00
2018-07-05T05:01:28.597Z,5656.00
2018-07-05T05:02:28.561Z,5784.00
2018-07-05T05:03:28.409Z,5664.00
2018-07-05T05:04:28.322Z,6664.00
2018-07-05T05:05:28.231Z,6848.00
2018-07-05T05:06:28.138Z,7084.00
2018-07-05T05:07:28.049Z,7300.00
2018-07-05T05:08:27.952Z,7420.00
2018-07-05T05:09:27.862Z,7544.00
2018-07-05T05:10:27.775Z,7592.00
2018-07-05T05:11:27.685Z,7608.00
2018-07-05T05:12:27.589Z,7560.00
2018-07-05T05:13:27.499Z,7472.00
2018-07-05T05:14:27.409Z,7360.00
2018-07-05T05:15:27.319Z,7340.00
2018-07-05T05:16:27.232Z,7432.00
2018-07-05T05:17:27.142Z,7608.00
2018-07-05T05:18:27.044Z,7572.00
2018-07-05T05:19:26.954Z,7552.00
2018-07-05T05:20:26.881Z,8156.00
2018-07-05T05:21:26.779Z,8272.00
2018-07-05T05:22:26.687Z,8328.00
2018-07-05T05:23:26.858Z,8348.00
2018-07-05T05:24:26.516Z,8372.00
2018-07-05T05:25:26.424Z,8500.00
2018-07-05T05:26:26.335Z,8692.00
2018-07-05T05:27:26.244Z,8900.00
2018-07-05T05:28:26.149Z,9148.00
2018-07-05T05:29:26.057Z,9500.00
2018-07-05T05:30:25.981Z,9816.00
2018-07-05T05:31:25.895Z,10132.00
2018-07-05T05:32:25.817Z,10412.00
2018-07-05T05:33:25.713Z,10592.00
2018-07-05T05:34:25.616Z,10476.00
2018-07-05T05:35:25.541Z,10240.00
2018-07-05T05:36:25.452Z,9992.00
2018-07-05T05:37:25.362Z,9828.00
2018-07-05T05:38:25.272Z,9664.00
2018-07-05T05:39:25.183Z,9688.00
2018-07-05T05:40:25.112Z,9692.00
2018-07-05T05:41:25.009Z,9604.00
2018-07-05T05:42:24.922Z,9572.00
2018-07-05T05:43:25.093Z,9596.00
2018-07-05T05:44:24.748Z,9656.00
2018-07-05T05:45:24.659Z,9636.00
2018-07-05T05:46:24.564Z,9688.00
2018-07-05T05:47:24.486Z,9732.00
2018-07-05T05:48:24.400Z,9812.00
2018-07-05T05:49:24.309Z,9860.00
2018-07-05T05:50:24.228Z,9800.00
2018-07-05T05:51:24.137Z,9764.00
2018-07-05T05:52:24.053Z,9872.00
2018-07-05T05:53:23.979Z,10084.00
2018-07-05T05:54:23.879Z,10500.00
2018-07-05T05:55:23.789Z,10868.00
2018-07-05T05:56:23.707Z,10932.00
2018-07-05T05:57:23.615Z,10788.00
2018-07-05T05:58:23.804Z,10696.00
2018-07-05T05:59:23.451Z,10644.00
2018-07-05T06:00:23.358Z,10584.00
2018-07-05T06:01:23.277Z,10576.00
2018-07-05T06:02:23.192Z,10780.00
2018-07-05T06:03:23.098Z,10928.00
2018-07-05T06:04:23.023Z,11184.00
2018-07-05T06:05:22.933Z,11320.00
2018-07-05T06:06:22.848Z,11460.00
2018-07-05T06:07:22.756Z,11612.00
2018-07-05T06:08:22.683Z,11816.00
2018-07-05T06:09:22.592Z,12176.00
2018-07-05T06:10:22.504Z,12340.00
2018-07-05T06:11:22.426Z,12384.00
2018-07-05T06:12:22.330Z,13132.00
2018-07-05T06:13:22.252Z,13552.00
2018-07-05T06:14:22.166Z,14204.00
2018-07-05T06:15:22.107Z,14940.00
2018-07-05T06:16:21.993Z,15720.00
2018-07-05T06:17:21.913Z,16556.00
2018-07-05T06:18:21.820Z,17344.00
2018-07-05T06:19:21.742Z,17536.00
2018-07-05T06:20:21.656Z,17440.00
2018-07-05T06:21:21.613Z,17568.00
2018-07-05T06:22:21.486Z,18144.00
2018-07-05T06:23:21.406Z,18432.00
2018-07-05T06:24:21.320Z,18368.00
2018-07-05T06:25:21.242Z,18656.00
2018-07-05T06:26:21.149Z,19232.00
2018-07-05T06:27:21.070Z,18976.00
2018-07-05T06:28:20.976Z,18944.00
2018-07-05T06:29:20.898Z,19232.00
2018-07-05T06:30:20.820Z,15580.00
2018-07-05T06:31:20.744Z,17952.00
2018-07-05T06:32:20.653Z,19168.00
2018-07-05T06:33:20.564Z,19072.00
2018-07-05T06:34:20.487Z,19136.00
2018-07-05T06:35:20.408Z,18464.00
2018-07-05T06:36:20.313Z,15932.00
2018-07-05T06:37:20.235Z,15760.00
2018-07-05T06:38:20.151Z,14444.00
2018-07-05T06:39:20.094Z,14204.00
2018-07-05T06:40:19.986Z,14028.00
2018-07-05T06:41:19.895Z,13484.00
2018-07-05T06:42:19.819Z,13160.00
2018-07-05T06:43:19.990Z,13324.00
2018-07-05T06:44:19.657Z,13980.00
2018-07-05T06:45:19.587Z,14544.00
2018-07-05T06:46:19.480Z,15072.00
2018-07-05T06:47:19.438Z,16624.00
2018-07-05T06:48:19.315Z,21920.00
2018-07-05T06:49:19.278Z,22720.00
2018-07-05T06:50:19.157Z,18816.00
2018-07-05T06:51:19.078Z,15716.00
2018-07-05T06:52:18.984Z,15072.00
2018-07-05T06:53:18.893Z,17344.00
2018-07-05T06:54:18.821Z,18912.00
2018-07-05T06:55:18.729Z,19296.00
2018-07-05T06:56:18.647Z,18688.00
2018-07-05T06:57:18.557Z,15320.00
2018-07-05T06:58:18.476Z,18432.00
2018-07-05T06:59:18.474Z,19168.00
2018-07-05T07:00:18.311Z,16812.00
2018-07-05T07:01:18.232Z,18624.00
2018-07-05T07:02:18.138Z,18944.00
2018-07-05T07:03:18.064Z,17600.00
2018-07-05T07:04:17.972Z,19520.00
2018-07-05T07:05:17.894Z,19776.00
2018-07-05T07:06:17.807Z,19680.00
2018-07-05T07:07:17.727Z,16808.00
2018-07-05T07:08:17.645Z,16288.00
2018-07-05T07:09:17.553Z,16336.00
2018-07-05T07:10:17.479Z,17548.00
2018-07-05T07:11:17.399Z,20832.00
2018-07-05T07:12:17.305Z,20704.00
2018-07-05T07:13:17.226Z,20704.00
2018-07-05T07:14:17.137Z,20512.00
2018-07-05T07:15:17.063Z,20480.00
2018-07-05T07:16:16.986Z,21056.00
2018-07-05T07:17:16.895Z,21600.00
2018-07-05T07:18:16.724Z,21856.00
2018-07-05T07:19:16.671Z,22016.00
2018-07-05T07:20:16.559Z,22496.00
2018-07-05T07:21:16.480Z,22784.00
2018-07-05T07:22:16.400Z,23520.00
2018-07-05T07:23:16.310Z,25184.00
2018-07-05T07:24:16.229Z,27136.00
2018-07-05T07:25:16.149Z,28800.00
2018-07-05T07:26:16.064Z,28512.00
2018-07-05T07:27:15.986Z,22336.00
2018-07-05T07:28:16.156Z,21696.00
2018-07-05T07:29:15.813Z,31744.00
2018-07-05T07:30:15.732Z,36640.00
2018-07-05T07:31:15.717Z,49568.00
2018-07-05T07:32:15.570Z,56192.00
2018-07-05T07:33:15.490Z,58272.00
2018-07-05T07:34:15.409Z,36928.00
2018-07-05T07:35:15.331Z,60224.00
2018-07-05T07:36:15.244Z,49152.00
2018-07-05T07:37:15.166Z,39456.00
2018-07-05T07:38:15.087Z,40736.00
2018-07-05T07:39:15.009Z,51168.00
2018-07-05T07:40:14.914Z,45152.00
2018-07-05T07:41:14.834Z,27616.00
2018-07-05T07:42:14.761Z,25280.00
2018-07-05T07:43:14.933Z,22816.00
2018-07-05T07:44:14.600Z,22432.00
2018-07-05T07:45:14.511Z,25344.00
2018-07-05T07:46:14.431Z,22336.00
2018-07-05T07:47:14.351Z,31136.00
2018-07-05T07:48:14.277Z,28416.00
2018-07-05T07:49:14.185Z,25664.00
2018-07-05T07:50:14.104Z,27744.00
2018-07-05T07:51:14.029Z,73728.00
2018-07-05T07:52:13.951Z,109504.00
2018-07-05T07:53:13.861Z,43360.00
2018-07-05T07:54:13.789Z,31360.00
2018-07-05T07:55:13.706Z,62048.00
2018-07-05T07:56:13.624Z,85376.00
2018-07-05T07:57:13.533Z,78560.00
2018-07-05T07:58:13.746Z,41376.00
2018-07-05T07:59:13.398Z,71936.00
2018-07-05T08:00:13.284Z,67424.00
2018-07-05T08:01:13.206Z,59712.00
2018-07-05T08:02:13.117Z,58016.00
2018-07-05T08:03:13.037Z,53824.00
2018-07-05T08:04:12.963Z,26784.00
2018-07-05T08:05:12.887Z,18112.00
2018-07-05T08:06:12.790Z,15912.00
2018-07-05T08:07:12.713Z,15196.00
2018-07-05T08:08:12.691Z,15312.00
2018-07-05T08:09:12.560Z,16204.00
2018-07-05T08:10:12.467Z,17760.00
2018-07-05T08:11:12.388Z,18592.00
2018-07-05T08:12:12.305Z,19008.00
2018-07-05T08:13:12.240Z,22560.00
2018-07-05T08:14:12.143Z,25888.00
2018-07-05T08:15:12.066Z,40672.00
2018-07-05T08:16:11.983Z,39456.00
2018-07-05T08:17:11.892Z,39520.00
2018-07-05T08:18:11.811Z,32576.00
2018-07-05T08:19:11.733Z,26432.00
2018-07-05T08:20:11.647Z,23392.00
2018-07-05T08:21:11.568Z,23520.00
2018-07-05T08:22:11.486Z,24256.00
2018-07-05T08:23:11.395Z,24512.00
2018-07-05T08:24:11.333Z,24256.00
2018-07-05T08:25:11.242Z,23904.00
2018-07-05T08:26:11.154Z,23936.00
2018-07-05T08:27:11.076Z,24544.00
2018-07-05T08:28:10.993Z,25056.00
2018-07-05T08:29:10.901Z,25120.00
2018-07-05T08:30:10.825Z,23968.00
2018-07-05T08:31:10.747Z,23360.00
2018-07-05T08:32:10.653Z,21984.00
2018-07-05T08:33:10.575Z,22304.00
2018-07-05T08:34:10.484Z,21664.00
2018-07-05T08:35:10.407Z,21792.00
2018-07-05T08:36:10.323Z,22304.00
2018-07-05T08:37:10.265Z,24000.00
2018-07-05T08:38:10.164Z,29152.00
2018-07-05T08:39:10.076Z,38816.00
2018-07-05T08:40:09.990Z,49536.00
2018-07-05T08:41:09.900Z,53408.00
2018-07-05T08:42:09.820Z,51904.00
2018-07-05T08:43:09.742Z,44096.00
2018-07-05T08:44:09.654Z,48640.00
2018-07-05T08:45:09.590Z,45632.00
2018-07-05T08:46:09.495Z,36416.00
2018-07-05T08:47:09.405Z,40448.00
2018-07-05T08:48:09.331Z,50816.00
2018-07-05T08:49:09.253Z,57152.00
2018-07-05T08:50:09.160Z,47680.00
2018-07-05T08:51:09.141Z,48544.00
2018-07-05T08:52:08.999Z,47616.00
2018-07-05T08:53:08.911Z,33184.00
2018-07-05T08:54:08.834Z,33568.00
2018-07-05T08:55:08.756Z,30432.00
2018-07-05T08:56:08.674Z,28416.00
2018-07-05T08:57:08.586Z,32352.00
2018-07-05T08:58:08.505Z,31584.00
2018-07-05T08:59:08.428Z,50752.00
2018-07-05T09:00:08.353Z,53952.00
2018-07-05T09:01:08.275Z,54688.00
2018-07-05T09:02:08.179Z,52384.00
2018-07-05T09:03:08.100Z,58144.00
2018-07-05T09:04:08.025Z,61088.00
2018-07-05T09:05:07.997Z,63360.00
2018-07-05T09:06:07.876Z,65568.00
2018-07-05T09:07:07.784Z,68320.00
2018-07-05T09:08:07.697Z,68768.00
2018-07-05T09:09:07.624Z,67872.00
2018-07-05T09:10:07.545Z,65952.00
2018-07-05T09:11:07.485Z,62368.00
2018-07-05T09:12:07.384Z,61984.00
2018-07-05T09:13:07.306Z,61248.00
2018-07-05T09:14:07.216Z,59840.00
2018-07-05T09:15:07.135Z,58912.00
2018-07-05T09:16:07.061Z,56672.00
2018-07-05T09:17:06.982Z,54304.00
2018-07-05T09:18:06.976Z,54880.00
2018-07-05T09:19:06.825Z,56640.00
2018-07-05T09:20:06.750Z,55584.00
2018-07-05T09:21:06.672Z,52896.00
2018-07-05T09:22:06.591Z,52480.00
2018-07-05T09:23:06.519Z,49760.00
2018-07-05T09:24:06.431Z,52768.00
2018-07-05T09:25:06.353Z,53888.00
2018-07-05T09:26:06.278Z,54368.00
2018-07-05T09:27:06.201Z,52992.00
2018-07-05T09:28:06.118Z,53760.00
2018-07-05T09:29:06.039Z,56512.00
2018-07-05T09:30:05.974Z,58144.00
2018-07-05T09:31:05.905Z,58976.00
2018-07-05T09:32:05.836Z,58112.00
2018-07-05T09:33:05.743Z,58464.00
2018-07-05T09:34:05.663Z,60064.00
2018-07-05T09:35:05.589Z,59968.00
2018-07-05T09:36:05.507Z,40128.00
2018-07-05T09:37:05.511Z,46304.00
2018-07-05T09:38:05.376Z,46304.00
2018-07-05T09:39:05.274Z,59296.00
2018-07-05T09:40:05.191Z,36704.00
2018-07-05T09:41:05.127Z,29344.00
2018-07-05T09:42:05.039Z,53568.00
2018-07-05T09:43:04.972Z,47008.00
2018-07-05T09:44:04.889Z,38304.00
2018-07-05T09:45:04.811Z,32992.00
2018-07-05T09:46:04.735Z,35712.00
2018-07-05T09:47:04.723Z,40032.00
2018-07-05T09:48:04.581Z,38112.00
2018-07-05T09:49:04.504Z,34336.00
2018-07-05T09:50:04.420Z,32448.00
2018-07-05T09:51:04.342Z,30848.00
2018-07-05T09:52:04.267Z,32736.00
2018-07-05T09:53:04.188Z,34752.00
2018-07-05T09:54:04.113Z,60256.00
2018-07-05T09:55:04.035Z,58720.00
2018-07-05T09:56:03.939Z,64288.00
2018-07-05T09:57:03.861Z,63776.00
2018-07-05T09:58:04.041Z,62464.00
2018-07-05T09:59:03.710Z,61600.00
2018-07-05T10:00:03.626Z,59296.00
2018-07-05T10:01:03.546Z,50080.00
2018-07-05T10:02:03.466Z,38016.00
2018-07-05T10:03:03.389Z,34720.00
2018-07-05T10:04:03.326Z,35296.00
2018-07-05T10:05:03.236Z,47200.00
2018-07-05T10:06:03.155Z,43424.00
2018-07-05T10:07:03.077Z,64160.00
2018-07-05T10:08:03.003Z,39936.00
2018-07-05T10:09:02.925Z,36352.00
2018-07-05T10:10:02.844Z,35456.00
2018-07-05T10:11:02.765Z,36448.00
2018-07-05T10:12:02.683Z,35808.00
2018-07-05T10:13:02.677Z,34560.00
2018-07-05T10:14:02.532Z,77888.00
2018-07-05T10:15:02.452Z,58176.00
2018-07-05T10:16:02.370Z,69856.00
2018-07-05T10:17:02.293Z,67072.00
2018-07-05T10:18:02.229Z,74592.00
2018-07-05T10:19:02.126Z,70144.00
2018-07-05T10:20:02.051Z,95456.00
2018-07-05T10:21:01.984Z,121792.00
2018-07-05T10:22:01.892Z,121504.00
2018-07-05T10:23:01.813Z,96512.00
2018-07-05T10:24:01.737Z,127840.00
2018-07-05T10:25:01.657Z,129152.00
2018-07-05T10:26:01.581Z,128768.00
2018-07-05T10:27:01.537Z,134912.00
2018-07-05T10:28:01.422Z,133728.00
2018-07-05T10:29:01.342Z,130304.00
2018-07-05T10:30:01.271Z,129824.00
2018-07-05T10:31:01.191Z,122016.00
2018-07-05T10:32:01.108Z,128800.00
2018-07-05T10:33:01.066Z,128096.00
2018-07-05T10:34:00.960Z,128960.00
2018-07-05T10:35:00.881Z,131072.00
2018-07-05T10:36:00.809Z,136704.00
2018-07-05T10:37:00.729Z,137952.00
2018-07-05T10:38:00.900Z,95360.00
2018-07-05T10:39:00.571Z,141312.00
2018-07-05T10:40:00.510Z,144192.00
2018-07-05T10:41:00.431Z,111232.00
2018-07-05T10:42:00.351Z,136992.00
2018-07-05T10:43:00.274Z,123552.00
2018-07-05T10:44:00.205Z,111392.00
2018-07-05T10:45:00.124Z,108128.00
2018-07-05T10:46:00.053Z,107232.00
2018-07-05T10:46:59.980Z,106688.00
2018-07-05T10:47:59.908Z,105184.00
2018-07-05T10:48:59.828Z,103424.00
2018-07-05T10:49:59.752Z,104416.00
2018-07-05T10:50:59.685Z,105728.00
2018-07-05T10:51:59.605Z,104928.00
2018-07-05T10:52:59.527Z,104832.00
2018-07-05T10:53:59.462Z,104256.00
2018-07-05T10:54:59.384Z,104032.00
2018-07-05T10:55:59.303Z,101120.00
2018-07-05T10:56:59.235Z,100736.00
2018-07-05T10:57:59.161Z,102048.00
2018-07-05T10:58:59.080Z,102784.00
2018-07-05T10:59:59.018Z,102368.00
2018-07-05T11:00:58.963Z,101312.00
2018-07-05T11:01:58.858Z,102240.00
2018-07-05T11:02:58.791Z,101632.00
2018-07-05T11:03:58.717Z,99616.00
2018-07-05T11:04:58.638Z,97120.00
2018-07-05T11:05:58.573Z,97568.00
2018-07-05T11:06:58.493Z,100064.00
2018-07-05T11:07:58.411Z,100512.00
2018-07-05T11:08:58.333Z,99008.00
2018-07-05T11:09:58.272Z,100224.00
2018-07-05T11:10:58.194Z,101696.00
2018-07-05T11:11:58.112Z,102912.00
2018-07-05T11:12:58.033Z,101472.00
2018-07-05T11:13:57.967Z,100640.00
2018-07-05T11:14:57.888Z,102752.00
2018-07-05T11:15:57.813Z,102912.00
2018-07-05T11:16:57.737Z,102720.00
2018-07-05T11:17:57.914Z,100928.00
2018-07-05T11:18:57.586Z,99648.00
2018-07-05T11:19:57.512Z,100544.00
2018-07-05T11:20:57.473Z,103648.00
2018-07-05T11:21:57.372Z,104352.00
2018-07-05T11:22:57.296Z,110048.00
2018-07-05T11:23:57.210Z,102272.00
2018-07-05T11:24:57.144Z,88320.00
2018-07-05T11:25:57.069Z,72832.00
2018-07-05T11:26:57.002Z,42656.00
2018-07-05T11:27:56.908Z,52672.00
2018-07-05T11:28:56.842Z,35456.00
2018-07-05T11:29:56.765Z,37184.00
2018-07-05T11:30:56.692Z,39040.00
2018-07-05T11:31:56.613Z,43680.00
2018-07-05T11:32:56.536Z,86240.00
2018-07-05T11:33:56.464Z,74880.00
2018-07-05T11:34:56.385Z,103392.00
2018-07-05T11:35:56.313Z,105728.00
2018-07-05T11:36:56.233Z,103008.00
2018-07-05T11:37:56.153Z,103680.00
2018-07-05T11:38:56.076Z,103776.00
2018-07-05T11:39:55.995Z,101952.00
2018-07-05T11:40:55.916Z,103008.00
2018-07-05T11:41:55.855Z,103712.00
2018-07-05T11:42:55.779Z,103264.00
2018-07-05T11:43:55.694Z,99232.00
2018-07-05T11:44:55.615Z,96448.00
2018-07-05T11:45:55.531Z,93760.00
2018-07-05T11:46:55.457Z,93312.00
2018-07-05T11:47:55.445Z,93440.00
2018-07-05T11:48:55.316Z,94048.00
2018-07-05T11:49:55.236Z,95904.00
2018-07-05T11:50:55.158Z,96736.00
2018-07-05T11:51:55.083Z,97216.00
2018-07-05T11:52:55.006Z,96800.00
2018-07-05T11:53:54.928Z,95872.00
2018-07-05T11:54:54.972Z,93824.00
2018-07-05T11:55:54.777Z,95744.00
2018-07-05T11:56:54.699Z,97120.00
2018-07-05T11:57:54.877Z,94944.00
2018-07-05T11:58:54.560Z,95008.00
2018-07-05T11:59:54.478Z,95296.00
2018-07-05T12:00:54.404Z,97440.00
2018-07-05T12:01:54.332Z,96096.00
2018-07-05T12:02:54.270Z,92992.00
2018-07-05T12:03:54.180Z,93088.00
2018-07-05T12:04:54.101Z,93120.00
2018-07-05T12:05:54.019Z,92896.00
2018-07-05T12:06:53.943Z,95872.00
2018-07-05T12:07:53.867Z,98144.00
2018-07-05T12:08:53.800Z,100480.00
2018-07-05T12:09:53.724Z,99968.00
2018-07-05T12:10:53.645Z,101120.00